sensor_id;sensor_type;location;lat;lon;timestamp;P1;durP1;ratioP1;P2;durP2;ratioP2
18102;SDS011;9178;51.120;6.192;2023-03-16T00:00:41;3.43;;;2.33;;
18102;SDS011;9178;51.120;6.192;2023-03-16T00:03:08;3.67;;;2.50;;
18102;SDS011;9178;51.120;6.192;2023-03-16T00:05:35;2.63;;;2.43;;
18102;SDS011;9178;51.120;6.192;2023-03-16T00:08:03;2.83;;;2.40;;
18102;SDS011;9178;51.120;6.192;2023-03-16T00:10:30;3.93;;;2.20;;
18102;SDS011;9178;51.120;6.192;2023-03-16T00:12:57;4.40;;;2.17;;
18102;SDS011;9178;51.120;6.192;2023-03-16T00:15:24;2.40;;;2.20;;
18102;SDS011;9178;51.120;6.192;2023-03-16T00:17:51;5.30;;;2.30;;
18102;SDS011;9178;51.120;6.192;2023-03-16T00:20:19;3.20;;;2.27;;
18102;SDS011;9178;51.120;6.192;2023-03-16T00:22:47;2.50;;;2.10;;
18102;SDS011;9178;51.120;6.192;2023-03-16T00:25:15;3.30;;;2.40;;
18102;SDS011;9178;51.120;6.192;2023-03-16T00:27:42;2.60;;;2.20;;
18102;SDS011;9178;51.120;6.192;2023-03-16T00:30:10;2.33;;;2.13;;
18102;SDS011;9178;51.120;6.192;2023-03-16T00:32:37;4.57;;;2.10;;
18102;SDS011;9178;51.120;6.192;2023-03-16T00:35:04;3.33;;;2.10;;
18102;SDS011;9178;51.120;6.192;2023-03-16T00:37:32;4.27;;;2.30;;
18102;SDS011;9178;51.120;6.192;2023-03-16T00:39:59;3.03;;;2.30;;
18102;SDS011;9178;51.120;6.192;2023-03-16T00:42:28;2.87;;;2.10;;
18102;SDS011;9178;51.120;6.192;2023-03-16T00:44:58;1.97;;;1.80;;
18102;SDS011;9178;51.120;6.192;2023-03-16T00:47:26;2.93;;;2.10;;
18102;SDS011;9178;51.120;6.192;2023-03-16T00:49:54;3.87;;;1.90;;
18102;SDS011;9178;51.120;6.192;2023-03-16T00:52:22;2.07;;;1.90;;
18102;SDS011;9178;51.120;6.192;2023-03-16T00:54:51;3.97;;;1.90;;
18102;SDS011;9178;51.120;6.192;2023-03-16T00:57:19;2.27;;;1.80;;
18102;SDS011;9178;51.120;6.192;2023-03-16T00:59:48;3.23;;;1.80;;
18102;SDS011;9178;51.120;6.192;2023-03-16T01:02:17;3.70;;;1.83;;
18102;SDS011;9178;51.120;6.192;2023-03-16T01:04:47;2.87;;;1.70;;
18102;SDS011;9178;51.120;6.192;2023-03-16T01:07:14;3.10;;;2.30;;
18102;SDS011;9178;51.120;6.192;2023-03-16T01:09:41;2.27;;;1.70;;
18102;SDS011;9178;51.120;6.192;2023-03-16T01:12:10;5.37;;;1.83;;
18102;SDS011;9178;51.120;6.192;2023-03-16T01:14:38;2.57;;;1.80;;
18102;SDS011;9178;51.120;6.192;2023-03-16T01:17:07;2.53;;;1.80;;
18102;SDS011;9178;51.120;6.192;2023-03-16T01:19:35;2.23;;;1.87;;
18102;SDS011;9178;51.120;6.192;2023-03-16T01:22:02;1.83;;;1.70;;
18102;SDS011;9178;51.120;6.192;2023-03-16T01:24:30;2.07;;;1.87;;
18102;SDS011;9178;51.120;6.192;2023-03-16T01:26:58;2.57;;;1.70;;
18102;SDS011;9178;51.120;6.192;2023-03-16T01:29:26;3.93;;;1.90;;
18102;SDS011;9178;51.120;6.192;2023-03-16T01:31:53;2.47;;;1.90;;
18102;SDS011;9178;51.120;6.192;2023-03-16T01:34:22;1.80;;;1.70;;
18102;SDS011;9178;51.120;6.192;2023-03-16T01:36:49;2.30;;;1.53;;
18102;SDS011;9178;51.120;6.192;2023-03-16T01:39:16;1.80;;;1.70;;
18102;SDS011;9178;51.120;6.192;2023-03-16T01:41:44;2.23;;;1.83;;
18102;SDS011;9178;51.120;6.192;2023-03-16T01:44:12;4.37;;;2.13;;
18102;SDS011;9178;51.120;6.192;2023-03-16T01:46:40;3.77;;;1.90;;
18102;SDS011;9178;51.120;6.192;2023-03-16T01:49:08;2.57;;;1.70;;
18102;SDS011;9178;51.120;6.192;2023-03-16T01:51:43;3.23;;;2.17;;
18102;SDS011;9178;51.120;6.192;2023-03-16T01:54:19;2.90;;;1.80;;
18102;SDS011;9178;51.120;6.192;2023-03-16T01:56:51;3.20;;;1.87;;
18102;SDS011;9178;51.120;6.192;2023-03-16T01:59:24;3.60;;;1.67;;
18102;SDS011;9178;51.120;6.192;2023-03-16T02:01:55;2.80;;;2.20;;
18102;SDS011;9178;51.120;6.192;2023-03-16T02:04:27;2.87;;;2.00;;
18102;SDS011;9178;51.120;6.192;2023-03-16T02:07:02;1.90;;;1.80;;
18102;SDS011;9178;51.120;6.192;2023-03-16T02:09:32;3.57;;;2.17;;
18102;SDS011;9178;51.120;6.192;2023-03-16T02:12:02;2.17;;;1.97;;
18102;SDS011;9178;51.120;6.192;2023-03-16T02:14:29;4.20;;;2.20;;
18102;SDS011;9178;51.120;6.192;2023-03-16T02:16:56;2.30;;;2.10;;
18102;SDS011;9178;51.120;6.192;2023-03-16T02:19:27;2.50;;;1.80;;
18102;SDS011;9178;51.120;6.192;2023-03-16T02:22:02;2.53;;;1.93;;
18102;SDS011;9178;51.120;6.192;2023-03-16T02:24:31;2.23;;;2.03;;
18102;SDS011;9178;51.120;6.192;2023-03-16T02:26:58;2.67;;;2.00;;
18102;SDS011;9178;51.120;6.192;2023-03-16T02:29:42;2.67;;;1.93;;
18102;SDS011;9178;51.120;6.192;2023-03-16T02:32:20;3.17;;;1.60;;
18102;SDS011;9178;51.120;6.192;2023-03-16T02:34:49;2.93;;;2.33;;
18102;SDS011;9178;51.120;6.192;2023-03-16T02:37:16;3.60;;;2.53;;
18102;SDS011;9178;51.120;6.192;2023-03-16T02:39:46;2.20;;;1.83;;
18102;SDS011;9178;51.120;6.192;2023-03-16T02:42:16;2.40;;;1.97;;
18102;SDS011;9178;51.120;6.192;2023-03-16T02:44:47;2.30;;;1.67;;
18102;SDS011;9178;51.120;6.192;2023-03-16T02:47:21;2.33;;;1.80;;
18102;SDS011;9178;51.120;6.192;2023-03-16T02:49:52;4.03;;;2.20;;
18102;SDS011;9178;51.120;6.192;2023-03-16T02:52:19;2.53;;;2.30;;
18102;SDS011;9178;51.120;6.192;2023-03-16T02:54:54;3.10;;;2.17;;
18102;SDS011;9178;51.120;6.192;2023-03-16T02:57:24;3.03;;;2.17;;
18102;SDS011;9178;51.120;6.192;2023-03-16T02:59:52;2.13;;;1.93;;
18102;SDS011;9178;51.120;6.192;2023-03-16T03:02:19;2.20;;;2.00;;
18102;SDS011;9178;51.120;6.192;2023-03-16T03:04:46;3.43;;;2.30;;
18102;SDS011;9178;51.120;6.192;2023-03-16T03:07:13;3.77;;;2.30;;
18102;SDS011;9178;51.120;6.192;2023-03-16T03:09:40;2.27;;;2.07;;
18102;SDS011;9178;51.120;6.192;2023-03-16T03:12:07;4.37;;;1.87;;
18102;SDS011;9178;51.120;6.192;2023-03-16T03:14:37;5.13;;;2.00;;
18102;SDS011;9178;51.120;6.192;2023-03-16T03:17:07;2.97;;;2.60;;
18102;SDS011;9178;51.120;6.192;2023-03-16T03:19:37;3.97;;;2.30;;
18102;SDS011;9178;51.120;6.192;2023-03-16T03:22:04;2.90;;;2.00;;
18102;SDS011;9178;51.120;6.192;2023-03-16T03:24:32;4.57;;;1.97;;
18102;SDS011;9178;51.120;6.192;2023-03-16T03:26:59;2.47;;;2.00;;
18102;SDS011;9178;51.120;6.192;2023-03-16T03:29:29;2.30;;;2.10;;
18102;SDS011;9178;51.120;6.192;2023-03-16T03:31:58;2.80;;;2.37;;
18102;SDS011;9178;51.120;6.192;2023-03-16T03:34:27;3.53;;;2.53;;
18102;SDS011;9178;51.120;6.192;2023-03-16T03:36:54;4.20;;;2.00;;
18102;SDS011;9178;51.120;6.192;2023-03-16T03:39:21;3.27;;;2.33;;
18102;SDS011;9178;51.120;6.192;2023-03-16T03:41:48;3.23;;;2.00;;
18102;SDS011;9178;51.120;6.192;2023-03-16T03:44:18;2.70;;;2.10;;
18102;SDS011;9178;51.120;6.192;2023-03-16T03:46:45;2.60;;;1.90;;
18102;SDS011;9178;51.120;6.192;2023-03-16T03:49:12;4.07;;;2.00;;
18102;SDS011;9178;51.120;6.192;2023-03-16T03:51:40;2.03;;;1.87;;
18102;SDS011;9178;51.120;6.192;2023-03-16T03:54:07;3.80;;;2.13;;
18102;SDS011;9178;51.120;6.192;2023-03-16T03:56:34;2.90;;;2.00;;
18102;SDS011;9178;51.120;6.192;2023-03-16T03:59:01;2.83;;;1.93;;
18102;SDS011;9178;51.120;6.192;2023-03-16T04:01:30;4.03;;;1.70;;
18102;SDS011;9178;51.120;6.192;2023-03-16T04:03:57;4.87;;;1.97;;
18102;SDS011;9178;51.120;6.192;2023-03-16T04:06:24;2.27;;;2.07;;
18102;SDS011;9178;51.120;6.192;2023-03-16T04:08:52;1.90;;;1.80;;
18102;SDS011;9178;51.120;6.192;2023-03-16T04:11:19;3.20;;;2.03;;
18102;SDS011;9178;51.120;6.192;2023-03-16T04:13:46;4.13;;;2.00;;
18102;SDS011;9178;51.120;6.192;2023-03-16T04:16:15;3.87;;;2.27;;
18102;SDS011;9178;51.120;6.192;2023-03-16T04:18:42;3.03;;;2.20;;
18102;SDS011;9178;51.120;6.192;2023-03-16T04:21:11;2.17;;;1.97;;
18102;SDS011;9178;51.120;6.192;2023-03-16T04:23:41;2.30;;;2.07;;
18102;SDS011;9178;51.120;6.192;2023-03-16T04:26:10;3.90;;;2.00;;
18102;SDS011;9178;51.120;6.192;2023-03-16T04:28:36;3.40;;;1.70;;
18102;SDS011;9178;51.120;6.192;2023-03-16T04:31:04;3.23;;;2.00;;
18102;SDS011;9178;51.120;6.192;2023-03-16T04:33:32;3.27;;;2.20;;
18102;SDS011;9178;51.120;6.192;2023-03-16T04:35:59;2.27;;;2.07;;
18102;SDS011;9178;51.120;6.192;2023-03-16T04:38:26;2.27;;;2.00;;
18102;SDS011;9178;51.120;6.192;2023-03-16T04:40:53;3.70;;;1.97;;
18102;SDS011;9178;51.120;6.192;2023-03-16T04:43:21;4.17;;;2.20;;
18102;SDS011;9178;51.120;6.192;2023-03-16T04:45:48;6.37;;;2.30;;
18102;SDS011;9178;51.120;6.192;2023-03-16T04:48:15;4.90;;;2.20;;
18102;SDS011;9178;51.120;6.192;2023-03-16T04:50:42;5.47;;;2.10;;
18102;SDS011;9178;51.120;6.192;2023-03-16T04:53:09;4.50;;;2.00;;
18102;SDS011;9178;51.120;6.192;2023-03-16T04:55:37;2.57;;;2.17;;
18102;SDS011;9178;51.120;6.192;2023-03-16T04:58:04;2.27;;;2.03;;
18102;SDS011;9178;51.120;6.192;2023-03-16T05:00:32;7.27;;;2.30;;
18102;SDS011;9178;51.120;6.192;2023-03-16T05:02:59;2.43;;;1.73;;
18102;SDS011;9178;51.120;6.192;2023-03-16T05:05:26;3.13;;;2.10;;
18102;SDS011;9178;51.120;6.192;2023-03-16T05:07:53;1.77;;;1.50;;
18102;SDS011;9178;51.120;6.192;2023-03-16T05:10:20;4.00;;;2.20;;
18102;SDS011;9178;51.120;6.192;2023-03-16T05:12:48;2.60;;;2.10;;
18102;SDS011;9178;51.120;6.192;2023-03-16T05:15:15;2.57;;;1.53;;
18102;SDS011;9178;51.120;6.192;2023-03-16T05:17:43;5.00;;;2.57;;
18102;SDS011;9178;51.120;6.192;2023-03-16T05:20:11;3.40;;;2.00;;
18102;SDS011;9178;51.120;6.192;2023-03-16T05:22:39;2.90;;;2.07;;
18102;SDS011;9178;51.120;6.192;2023-03-16T05:25:07;3.10;;;2.00;;
18102;SDS011;9178;51.120;6.192;2023-03-16T05:27:39;3.00;;;1.70;;
18102;SDS011;9178;51.120;6.192;2023-03-16T05:30:07;2.27;;;2.07;;
18102;SDS011;9178;51.120;6.192;2023-03-16T05:32:34;3.40;;;2.30;;
18102;SDS011;9178;51.120;6.192;2023-03-16T05:35:04;2.40;;;1.83;;
18102;SDS011;9178;51.120;6.192;2023-03-16T05:37:32;2.00;;;1.90;;
18102;SDS011;9178;51.120;6.192;2023-03-16T05:40:02;3.90;;;2.10;;
18102;SDS011;9178;51.120;6.192;2023-03-16T05:42:41;2.60;;;1.90;;
18102;SDS011;9178;51.120;6.192;2023-03-16T05:45:09;3.73;;;2.10;;
18102;SDS011;9178;51.120;6.192;2023-03-16T05:47:37;5.27;;;2.40;;
18102;SDS011;9178;51.120;6.192;2023-03-16T05:50:06;3.33;;;2.20;;
18102;SDS011;9178;51.120;6.192;2023-03-16T05:52:35;3.43;;;2.20;;
18102;SDS011;9178;51.120;6.192;2023-03-16T05:55:05;3.37;;;2.40;;
18102;SDS011;9178;51.120;6.192;2023-03-16T05:57:36;3.13;;;2.40;;
18102;SDS011;9178;51.120;6.192;2023-03-16T06:00:04;3.03;;;2.10;;
18102;SDS011;9178;51.120;6.192;2023-03-16T06:02:38;2.60;;;2.23;;
18102;SDS011;9178;51.120;6.192;2023-03-16T06:05:07;2.90;;;2.07;;
18102;SDS011;9178;51.120;6.192;2023-03-16T06:07:35;4.23;;;2.60;;
18102;SDS011;9178;51.120;6.192;2023-03-16T06:10:09;4.03;;;2.33;;
18102;SDS011;9178;51.120;6.192;2023-03-16T06:12:37;2.63;;;2.07;;
18102;SDS011;9178;51.120;6.192;2023-03-16T06:15:05;3.63;;;2.17;;
18102;SDS011;9178;51.120;6.192;2023-03-16T06:17:35;3.93;;;2.40;;
18102;SDS011;9178;51.120;6.192;2023-03-16T06:20:03;5.63;;;2.07;;
18102;SDS011;9178;51.120;6.192;2023-03-16T06:22:36;4.90;;;2.40;;
18102;SDS011;9178;51.120;6.192;2023-03-16T06:25:14;4.07;;;2.33;;
18102;SDS011;9178;51.120;6.192;2023-03-16T06:27:41;3.23;;;2.30;;
18102;SDS011;9178;51.120;6.192;2023-03-16T06:30:09;2.50;;;2.30;;
18102;SDS011;9178;51.120;6.192;2023-03-16T06:32:37;6.57;;;2.90;;
18102;SDS011;9178;51.120;6.192;2023-03-16T06:35:06;3.87;;;2.30;;
18102;SDS011;9178;51.120;6.192;2023-03-16T06:37:34;7.07;;;2.93;;
18102;SDS011;9178;51.120;6.192;2023-03-16T06:40:02;3.60;;;2.40;;
18102;SDS011;9178;51.120;6.192;2023-03-16T06:42:31;3.63;;;2.57;;
18102;SDS011;9178;51.120;6.192;2023-03-16T06:44:57;3.77;;;2.43;;
18102;SDS011;9178;51.120;6.192;2023-03-16T06:47:24;4.43;;;2.30;;
18102;SDS011;9178;51.120;6.192;2023-03-16T06:49:51;4.97;;;2.40;;
18102;SDS011;9178;51.120;6.192;2023-03-16T06:52:19;5.77;;;2.80;;
18102;SDS011;9178;51.120;6.192;2023-03-16T06:54:46;2.63;;;2.30;;
18102;SDS011;9178;51.120;6.192;2023-03-16T06:57:14;5.23;;;2.53;;
18102;SDS011;9178;51.120;6.192;2023-03-16T06:59:41;2.53;;;2.27;;
18102;SDS011;9178;51.120;6.192;2023-03-16T07:02:09;6.70;;;2.90;;
18102;SDS011;9178;51.120;6.192;2023-03-16T07:04:37;5.67;;;2.50;;
18102;SDS011;9178;51.120;6.192;2023-03-16T07:07:04;4.03;;;2.60;;
18102;SDS011;9178;51.120;6.192;2023-03-16T07:09:31;5.37;;;2.50;;
18102;SDS011;9178;51.120;6.192;2023-03-16T07:11:58;5.67;;;2.80;;
18102;SDS011;9178;51.120;6.192;2023-03-16T07:14:26;5.43;;;2.67;;
18102;SDS011;9178;51.120;6.192;2023-03-16T07:16:53;2.57;;;2.37;;
18102;SDS011;9178;51.120;6.192;2023-03-16T07:19:20;8.13;;;2.47;;
18102;SDS011;9178;51.120;6.192;2023-03-16T07:21:47;2.93;;;2.20;;
18102;SDS011;9178;51.120;6.192;2023-03-16T07:24:15;4.20;;;2.10;;
18102;SDS011;9178;51.120;6.192;2023-03-16T07:26:42;4.13;;;2.47;;
18102;SDS011;9178;51.120;6.192;2023-03-16T07:29:10;3.57;;;2.30;;
18102;SDS011;9178;51.120;6.192;2023-03-16T07:31:39;5.37;;;2.37;;
18102;SDS011;9178;51.120;6.192;2023-03-16T07:34:06;2.43;;;1.90;;
18102;SDS011;9178;51.120;6.192;2023-03-16T07:36:33;3.27;;;2.13;;
18102;SDS011;9178;51.120;6.192;2023-03-16T07:38:59;4.17;;;2.47;;
18102;SDS011;9178;51.120;6.192;2023-03-16T07:41:26;5.67;;;1.93;;
18102;SDS011;9178;51.120;6.192;2023-03-16T07:43:53;4.50;;;2.33;;
18102;SDS011;9178;51.120;6.192;2023-03-16T07:46:22;2.83;;;2.20;;
18102;SDS011;9178;51.120;6.192;2023-03-16T07:48:50;2.50;;;2.30;;
18102;SDS011;9178;51.120;6.192;2023-03-16T07:51:17;2.93;;;2.33;;
18102;SDS011;9178;51.120;6.192;2023-03-16T07:53:44;4.97;;;2.30;;
18102;SDS011;9178;51.120;6.192;2023-03-16T07:56:11;2.97;;;2.00;;
18102;SDS011;9178;51.120;6.192;2023-03-16T07:58:37;2.73;;;2.30;;
18102;SDS011;9178;51.120;6.192;2023-03-16T08:01:05;3.20;;;2.07;;
18102;SDS011;9178;51.120;6.192;2023-03-16T08:03:34;6.73;;;2.37;;
18102;SDS011;9178;51.120;6.192;2023-03-16T08:06:03;4.83;;;2.20;;
18102;SDS011;9178;51.120;6.192;2023-03-16T08:08:30;2.63;;;2.27;;
18102;SDS011;9178;51.120;6.192;2023-03-16T08:10:57;4.90;;;2.40;;
18102;SDS011;9178;51.120;6.192;2023-03-16T08:13:24;5.07;;;2.60;;
18102;SDS011;9178;51.120;6.192;2023-03-16T08:15:52;3.03;;;2.27;;
18102;SDS011;9178;51.120;6.192;2023-03-16T08:18:22;4.47;;;2.33;;
18102;SDS011;9178;51.120;6.192;2023-03-16T08:20:50;2.53;;;2.30;;
18102;SDS011;9178;51.120;6.192;2023-03-16T08:23:18;3.63;;;2.53;;
18102;SDS011;9178;51.120;6.192;2023-03-16T08:25:46;5.37;;;2.93;;
18102;SDS011;9178;51.120;6.192;2023-03-16T08:28:16;2.97;;;2.33;;
18102;SDS011;9178;51.120;6.192;2023-03-16T08:30:45;3.83;;;2.10;;
18102;SDS011;9178;51.120;6.192;2023-03-16T08:33:15;5.87;;;2.63;;
18102;SDS011;9178;51.120;6.192;2023-03-16T08:35:44;3.87;;;2.30;;
18102;SDS011;9178;51.120;6.192;2023-03-16T08:38:12;4.80;;;2.50;;
18102;SDS011;9178;51.120;6.192;2023-03-16T08:40:42;3.10;;;2.10;;
18102;SDS011;9178;51.120;6.192;2023-03-16T08:43:12;2.70;;;2.07;;
18102;SDS011;9178;51.120;6.192;2023-03-16T08:45:39;3.93;;;2.10;;
18102;SDS011;9178;51.120;6.192;2023-03-16T08:48:08;2.53;;;1.97;;
18102;SDS011;9178;51.120;6.192;2023-03-16T08:50:40;2.57;;;1.73;;
18102;SDS011;9178;51.120;6.192;2023-03-16T08:53:08;3.13;;;2.23;;
18102;SDS011;9178;51.120;6.192;2023-03-16T08:55:36;3.40;;;1.97;;
18102;SDS011;9178;51.120;6.192;2023-03-16T08:58:05;3.50;;;1.90;;
18102;SDS011;9178;51.120;6.192;2023-03-16T09:00:32;3.73;;;2.10;;
18102;SDS011;9178;51.120;6.192;2023-03-16T09:03:00;2.30;;;2.03;;
18102;SDS011;9178;51.120;6.192;2023-03-16T09:05:27;3.57;;;2.00;;
18102;SDS011;9178;51.120;6.192;2023-03-16T09:07:54;6.20;;;2.20;;
18102;SDS011;9178;51.120;6.192;2023-03-16T09:10:21;5.10;;;2.10;;
18102;SDS011;9178;51.120;6.192;2023-03-16T09:12:49;7.07;;;2.40;;
18102;SDS011;9178;51.120;6.192;2023-03-16T09:15:18;5.20;;;2.10;;
18102;SDS011;9178;51.120;6.192;2023-03-16T09:17:46;3.93;;;1.73;;
18102;SDS011;9178;51.120;6.192;2023-03-16T09:20:15;4.33;;;1.70;;
18102;SDS011;9178;51.120;6.192;2023-03-16T09:22:42;2.23;;;1.50;;
18102;SDS011;9178;51.120;6.192;2023-03-16T09:25:10;2.80;;;1.40;;
18102;SDS011;9178;51.120;6.192;2023-03-16T09:27:37;2.13;;;1.37;;
18102;SDS011;9178;51.120;6.192;2023-03-16T09:30:05;4.10;;;1.63;;
18102;SDS011;9178;51.120;6.192;2023-03-16T09:32:34;5.23;;;1.90;;
18102;SDS011;9178;51.120;6.192;2023-03-16T09:35:02;1.57;;;1.43;;
18102;SDS011;9178;51.120;6.192;2023-03-16T09:37:30;1.63;;;1.50;;
18102;SDS011;9178;51.120;6.192;2023-03-16T09:39:57;3.27;;;1.60;;
18102;SDS011;9178;51.120;6.192;2023-03-16T09:42:26;3.90;;;1.23;;
18102;SDS011;9178;51.120;6.192;2023-03-16T09:45:02;1.83;;;1.50;;
18102;SDS011;9178;51.120;6.192;2023-03-16T09:47:38;1.67;;;1.30;;
18102;SDS011;9178;51.120;6.192;2023-03-16T09:50:09;4.00;;;1.40;;
18102;SDS011;9178;51.120;6.192;2023-03-16T09:52:43;2.37;;;1.40;;
18102;SDS011;9178;51.120;6.192;2023-03-16T09:55:22;3.13;;;1.50;;
18102;SDS011;9178;51.120;6.192;2023-03-16T09:57:53;4.13;;;1.60;;
18102;SDS011;9178;51.120;6.192;2023-03-16T10:00:22;2.97;;;1.40;;
18102;SDS011;9178;51.120;6.192;2023-03-16T10:03:13;2.87;;;1.50;;
18102;SDS011;9178;51.120;6.192;2023-03-16T10:05:48;2.20;;;1.47;;
18102;SDS011;9178;51.120;6.192;2023-03-16T10:08:24;2.37;;;1.57;;
18102;SDS011;9178;51.120;6.192;2023-03-16T10:11:09;1.50;;;1.40;;
18102;SDS011;9178;51.120;6.192;2023-03-16T10:13:49;3.10;;;1.43;;
18102;SDS011;9178;51.120;6.192;2023-03-16T10:16:21;4.57;;;1.60;;
18102;SDS011;9178;51.120;6.192;2023-03-16T10:18:56;3.63;;;1.50;;
18102;SDS011;9178;51.120;6.192;2023-03-16T10:21:27;1.80;;;1.50;;
18102;SDS011;9178;51.120;6.192;2023-03-16T10:23:58;3.37;;;1.90;;
18102;SDS011;9178;51.120;6.192;2023-03-16T10:26:30;2.90;;;1.40;;
18102;SDS011;9178;51.120;6.192;2023-03-16T10:29:03;2.90;;;1.30;;
18102;SDS011;9178;51.120;6.192;2023-03-16T10:31:31;3.87;;;1.40;;
18102;SDS011;9178;51.120;6.192;2023-03-16T10:34:04;4.77;;;1.40;;
18102;SDS011;9178;51.120;6.192;2023-03-16T10:36:32;2.07;;;1.33;;
18102;SDS011;9178;51.120;6.192;2023-03-16T10:39:01;3.87;;;1.63;;
18102;SDS011;9178;51.120;6.192;2023-03-16T10:41:30;3.47;;;1.60;;
18102;SDS011;9178;51.120;6.192;2023-03-16T10:44:00;3.67;;;1.40;;
18102;SDS011;9178;51.120;6.192;2023-03-16T10:46:35;2.80;;;1.30;;
18102;SDS011;9178;51.120;6.192;2023-03-16T10:49:16;2.67;;;1.40;;
18102;SDS011;9178;51.120;6.192;2023-03-16T10:51:45;1.70;;;1.30;;
18102;SDS011;9178;51.120;6.192;2023-03-16T10:54:14;1.47;;;0.90;;
18102;SDS011;9178;51.120;6.192;2023-03-16T10:56:43;2.07;;;1.30;;
18102;SDS011;9178;51.120;6.192;2023-03-16T10:59:14;0.93;;;0.83;;
18102;SDS011;9178;51.120;6.192;2023-03-16T11:01:52;3.30;;;1.00;;
18102;SDS011;9178;51.120;6.192;2023-03-16T11:04:21;2.27;;;1.17;;
18102;SDS011;9178;51.120;6.192;2023-03-16T11:06:50;2.40;;;1.03;;
18102;SDS011;9178;51.120;6.192;2023-03-16T11:09:20;1.50;;;1.27;;
18102;SDS011;9178;51.120;6.192;2023-03-16T11:11:50;2.30;;;1.05;;
18102;SDS011;9178;51.120;6.192;2023-03-16T11:14:21;2.63;;;1.20;;
18102;SDS011;9178;51.120;6.192;2023-03-16T11:16:54;3.20;;;1.30;;
18102;SDS011;9178;51.120;6.192;2023-03-16T11:19:27;4.45;;;1.35;;
18102;SDS011;9178;51.120;6.192;2023-03-16T11:21:58;2.13;;;1.00;;
18102;SDS011;9178;51.120;6.192;2023-03-16T11:24:29;1.70;;;1.30;;
18102;SDS011;9178;51.120;6.192;2023-03-16T11:27:02;3.22;;;1.00;;
18102;SDS011;9178;51.120;6.192;2023-03-16T11:29:37;1.77;;;1.42;;
18102;SDS011;9178;51.120;6.192;2023-03-16T11:32:12;2.85;;;1.00;;
18102;SDS011;9178;51.120;6.192;2023-03-16T11:34:45;2.28;;;1.23;;
18102;SDS011;9178;51.120;6.192;2023-03-16T11:37:14;2.70;;;1.23;;
18102;SDS011;9178;51.120;6.192;2023-03-16T11:39:56;3.08;;;1.17;;
18102;SDS011;9178;51.120;6.192;2023-03-16T11:42:38;2.20;;;0.90;;
18102;SDS011;9178;51.120;6.192;2023-03-16T11:45:15;2.10;;;0.90;;
18102;SDS011;9178;51.120;6.192;2023-03-16T11:47:52;3.92;;;1.15;;
18102;SDS011;9178;51.120;6.192;2023-03-16T11:50:41;1.73;;;0.80;;
18102;SDS011;9178;51.120;6.192;2023-03-16T11:53:18;1.13;;;0.70;;
18102;SDS011;9178;51.120;6.192;2023-03-16T11:55:58;1.40;;;0.85;;
18102;SDS011;9178;51.120;6.192;2023-03-16T11:58:39;1.55;;;0.80;;
18102;SDS011;9178;51.120;6.192;2023-03-16T12:01:19;2.10;;;0.80;;
18102;SDS011;9178;51.120;6.192;2023-03-16T12:04:01;2.45;;;0.90;;
18102;SDS011;9178;51.120;6.192;2023-03-16T12:06:52;1.23;;;0.70;;
18102;SDS011;9178;51.120;6.192;2023-03-16T12:09:51;1.73;;;0.60;;
18102;SDS011;9178;51.120;6.192;2023-03-16T12:12:28;1.25;;;0.60;;
18102;SDS011;9178;51.120;6.192;2023-03-16T12:15:14;2.47;;;0.95;;
18102;SDS011;9178;51.120;6.192;2023-03-16T12:17:48;1.23;;;0.75;;
18102;SDS011;9178;51.120;6.192;2023-03-16T12:20:18;1.02;;;0.50;;
18102;SDS011;9178;51.120;6.192;2023-03-16T12:22:50;1.33;;;0.82;;
18102;SDS011;9178;51.120;6.192;2023-03-16T12:25:20;0.95;;;0.60;;
18102;SDS011;9178;51.120;6.192;2023-03-16T12:27:49;4.85;;;0.80;;
18102;SDS011;9178;51.120;6.192;2023-03-16T12:30:23;2.10;;;0.80;;
18102;SDS011;9178;51.120;6.192;2023-03-16T12:33:03;1.00;;;0.70;;
18102;SDS011;9178;51.120;6.192;2023-03-16T12:35:38;1.65;;;0.70;;
18102;SDS011;9178;51.120;6.192;2023-03-16T12:38:22;2.25;;;0.57;;
18102;SDS011;9178;51.120;6.192;2023-03-16T12:41:14;0.80;;;0.50;;
18102;SDS011;9178;51.120;6.192;2023-03-16T12:43:51;0.70;;;0.70;;
18102;SDS011;9178;51.120;6.192;2023-03-16T12:46:26;0.70;;;0.67;;
18102;SDS011;9178;51.120;6.192;2023-03-16T12:49:01;1.00;;;0.57;;
18102;SDS011;9178;51.120;6.192;2023-03-16T12:51:31;2.00;;;0.90;;
18102;SDS011;9178;51.120;6.192;2023-03-16T12:54:01;1.85;;;0.60;;
18102;SDS011;9178;51.120;6.192;2023-03-16T12:56:30;1.13;;;0.65;;
18102;SDS011;9178;51.120;6.192;2023-03-16T12:58:58;1.83;;;0.80;;
18102;SDS011;9178;51.120;6.192;2023-03-16T13:01:28;1.98;;;0.60;;
18102;SDS011;9178;51.120;6.192;2023-03-16T13:04:00;1.17;;;0.55;;
18102;SDS011;9178;51.120;6.192;2023-03-16T13:06:41;2.42;;;0.68;;
18102;SDS011;9178;51.120;6.192;2023-03-16T13:09:11;0.90;;;0.50;;
18102;SDS011;9178;51.120;6.192;2023-03-16T13:11:46;3.45;;;0.40;;
18102;SDS011;9178;51.120;6.192;2023-03-16T13:14:16;1.58;;;0.60;;
18102;SDS011;9178;51.120;6.192;2023-03-16T13:17:02;1.15;;;0.60;;
18102;SDS011;9178;51.120;6.192;2023-03-16T13:19:30;2.05;;;0.70;;
18102;SDS011;9178;51.120;6.192;2023-03-16T13:22:03;0.65;;;0.63;;
18102;SDS011;9178;51.120;6.192;2023-03-16T13:24:48;1.80;;;0.77;;
18102;SDS011;9178;51.120;6.192;2023-03-16T13:27:20;1.88;;;0.50;;
18102;SDS011;9178;51.120;6.192;2023-03-16T13:29:51;1.48;;;0.60;;
18102;SDS011;9178;51.120;6.192;2023-03-16T13:32:19;0.88;;;0.50;;
18102;SDS011;9178;51.120;6.192;2023-03-16T13:34:48;2.10;;;0.57;;
18102;SDS011;9178;51.120;6.192;2023-03-16T13:37:17;2.28;;;0.50;;
18102;SDS011;9178;51.120;6.192;2023-03-16T13:39:52;0.50;;;0.50;;
18102;SDS011;9178;51.120;6.192;2023-03-16T13:42:22;2.00;;;0.60;;
18102;SDS011;9178;51.120;6.192;2023-03-16T13:44:52;1.75;;;0.60;;
18102;SDS011;9178;51.120;6.192;2023-03-16T13:47:21;0.98;;;0.70;;
18102;SDS011;9178;51.120;6.192;2023-03-16T13:49:53;2.67;;;0.80;;
18102;SDS011;9178;51.120;6.192;2023-03-16T13:52:23;1.52;;;0.70;;
18102;SDS011;9178;51.120;6.192;2023-03-16T13:54:53;1.48;;;0.50;;
18102;SDS011;9178;51.120;6.192;2023-03-16T13:57:23;1.25;;;0.60;;
18102;SDS011;9178;51.120;6.192;2023-03-16T13:59:53;0.95;;;0.65;;
18102;SDS011;9178;51.120;6.192;2023-03-16T14:02:29;0.32;;;0.32;;
18102;SDS011;9178;51.120;6.192;2023-03-16T14:05:08;0.80;;;0.32;;
18102;SDS011;9178;51.120;6.192;2023-03-16T14:07:37;2.03;;;0.70;;
18102;SDS011;9178;51.120;6.192;2023-03-16T14:10:07;2.58;;;0.88;;
18102;SDS011;9178;51.120;6.192;2023-03-16T14:12:36;2.83;;;0.70;;
18102;SDS011;9178;51.120;6.192;2023-03-16T14:15:05;1.38;;;0.52;;
18102;SDS011;9178;51.120;6.192;2023-03-16T14:17:34;1.58;;;0.47;;
18102;SDS011;9178;51.120;6.192;2023-03-16T14:20:01;2.17;;;0.43;;
18102;SDS011;9178;51.120;6.192;2023-03-16T14:22:30;1.52;;;0.70;;
18102;SDS011;9178;51.120;6.192;2023-03-16T14:25:01;0.90;;;0.50;;
18102;SDS011;9178;51.120;6.192;2023-03-16T14:27:41;1.83;;;0.55;;
18102;SDS011;9178;51.120;6.192;2023-03-16T14:30:23;1.50;;;0.60;;
18102;SDS011;9178;51.120;6.192;2023-03-16T14:32:55;0.55;;;0.50;;
18102;SDS011;9178;51.120;6.192;2023-03-16T14:35:25;0.93;;;0.40;;
18102;SDS011;9178;51.120;6.192;2023-03-16T14:37:54;1.33;;;0.65;;
18102;SDS011;9178;51.120;6.192;2023-03-16T14:40:23;1.38;;;0.50;;
18102;SDS011;9178;51.120;6.192;2023-03-16T14:42:54;1.77;;;0.50;;
18102;SDS011;9178;51.120;6.192;2023-03-16T14:45:25;1.33;;;0.60;;
18102;SDS011;9178;51.120;6.192;2023-03-16T14:47:59;1.92;;;0.52;;
18102;SDS011;9178;51.120;6.192;2023-03-16T14:50:29;1.83;;;0.50;;
18102;SDS011;9178;51.120;6.192;2023-03-16T14:52:57;1.75;;;0.60;;
18102;SDS011;9178;51.120;6.192;2023-03-16T14:55:25;0.88;;;0.55;;
18102;SDS011;9178;51.120;6.192;2023-03-16T14:57:54;1.30;;;0.50;;
18102;SDS011;9178;51.120;6.192;2023-03-16T15:00:21;1.45;;;0.40;;
18102;SDS011;9178;51.120;6.192;2023-03-16T15:02:51;0.90;;;0.50;;
18102;SDS011;9178;51.120;6.192;2023-03-16T15:05:26;1.95;;;0.50;;
18102;SDS011;9178;51.120;6.192;2023-03-16T15:07:57;2.08;;;0.50;;
18102;SDS011;9178;51.120;6.192;2023-03-16T15:10:24;1.50;;;0.55;;
18102;SDS011;9178;51.120;6.192;2023-03-16T15:12:55;0.60;;;0.60;;
18102;SDS011;9178;51.120;6.192;2023-03-16T15:15:28;1.80;;;0.60;;
18102;SDS011;9178;51.120;6.192;2023-03-16T15:17:56;2.15;;;0.85;;